Time;durP1;ratioP1;P1;durP2;ratioP2;P2;SDS_P1;SDS_P2;PMS_P1;PMS_P2;Temp;Humidity;BMP_temperature;BMP_pressure;BME280_temperature;BME280_humidity;BME280_pressure;Samples;Min_cycle;Max_cycle;Signal;HPM_P1;HPM_P2
2021/01/03 00:26:18;;;;;;;16.55;13.63;;;6.90;99.90;;;;;;6213937;22;20180;-86
2021/01/03 00:29:09;;;;;;;16.15;12.68;;;6.80;99.90;;;;;;6052506;23;20214;-87
2021/01/03 00:36:28;;;;;;;12.30;10.85;;;6.80;99.90;;;;;;6022565;23;20245;-85
2021/01/03 00:42:42;;;;;;;12.52;10.40;;;6.90;99.90;;;;;;6008217;23;20160;-85
2021/01/03 00:45:17;;;;;;;18.75;13.07;;;6.80;99.90;;;;;;6008362;23;20591;-84
2021/01/03 00:47:58;;;;;;;15.13;12.55;;;6.80;99.90;;;;;;6032385;23;20167;-84
2021/01/03 00:50:30;;;;;;;15.55;12.40;;;6.80;99.90;;;;;;6008989;23;20192;-84
2021/01/03 00:53:45;;;;;;;14.82;12.20;;;6.80;99.90;;;;;;6033955;23;20145;-84
2021/01/03 00:56:54;;;;;;;;;;;;;;;;;;;;;
2021/01/03 01:00:34;;;;;;;17.75;12.35;;;6.80;99.90;;;;;;5999568;23;20179;-84
2021/01/03 01:03:46;;;;;;;15.18;12.45;;;6.90;99.90;;;;;;6053479;23;20159;-84
2021/01/03 01:10:28;;;;;;;13.70;9.85;;;6.80;99.90;;;;;;6035126;23;20241;-84
2021/01/03 01:13:58;;;;;;;16.45;11.75;;;6.80;99.90;;;;;;6035790;23;20489;-84
2021/01/03 01:16:54;;;;;;;12.00;9.57;;;6.80;99.90;;;;;;5994146;23;20180;-84
2021/01/03 01:19:42;;;;;;;14.95;11.88;;;6.80;99.90;;;;;;6031725;23;20302;-84
2021/01/03 01:23:09;;;;;;;15.30;12.82;;;6.80;99.90;;;;;;5988276;23;20232;-85
2021/01/03 01:25:35;;;;;;;15.43;12.68;;;6.90;99.90;;;;;;6007966;23;20235;-84
2021/01/03 01:28:01;;;;;;;13.05;10.60;;;6.80;99.90;;;;;;6007263;23;20527;-84
2021/01/03 01:30:29;;;;;;;14.88;11.43;;;6.80;99.90;;;;;;6030534;23;20523;-84
2021/01/03 01:32:55;;;;;;;15.32;12.23;;;6.90;99.90;;;;;;6031442;23;20219;-84
2021/01/03 01:35:25;;;;;;;12.18;10.73;;;6.80;99.90;;;;;;6031505;23;20642;-83
2021/01/03 01:37:52;;;;;;;18.08;12.65;;;6.80;99.90;;;;;;6032396;23;20149;-84
2021/01/03 01:40:21;;;;;;;11.07;9.50;;;6.90;99.90;;;;;;6015223;23;20161;-84
2021/01/03 01:42:48;;;;;;;14.70;11.77;;;6.80;99.90;;;;;;6009115;23;20153;-84
2021/01/03 01:45:17;;;;;;;18.63;13.65;;;6.80;99.90;;;;;;6031548;23;20156;-84
2021/01/03 01:47:46;;;;;;;14.82;11.80;;;6.80;99.90;;;;;;6034989;23;20149;-84
2021/01/03 01:50:20;;;;;;;13.10;11.40;;;6.80;99.90;;;;;;6034055;23;20257;-84
2021/01/03 01:52:51;;;;;;;14.05;11.07;;;6.90;99.90;;;;;;6032980;23;20137;-84
2021/01/03 01:55:22;;;;;;;16.08;12.05;;;6.90;99.90;;;;;;6033802;23;20157;-84
2021/01/03 01:58:29;;;;;;;16.30;12.98;;;6.90;99.90;;;;;;6009147;23;20232;-84
2021/01/03 02:01:02;;;;;;;15.48;11.52;;;6.90;99.90;;;;;;5926827;24;20187;-84
2021/01/03 02:04:16;;;;;;;16.50;11.93;;;6.90;99.90;;;;;;6027144;23;20339;-84
2021/01/03 02:06:49;;;;;;;15.60;11.32;;;6.90;99.90;;;;;;5990870;23;20161;-84
2021/01/03 02:09:41;;;;;;;11.27;9.18;;;6.90;99.90;;;;;;6035458;23;20256;-85
2021/01/03 02:12:22;;;;;;;12.50;10.00;;;6.90;99.90;;;;;;6037059;23;20651;-85
2021/01/03 02:14:48;;;;;;;12.35;9.65;;;6.90;99.90;;;;;;6037390;23;20168;-85
2021/01/03 02:17:14;;;;;;;12.70;9.30;;;7.00;99.90;;;;;;6036574;23;20698;-84
2021/01/03 02:19:40;;;;;;;10.03;9.03;;;7.00;99.90;;;;;;6037663;23;20592;-84
2021/01/03 02:22:20;;;;;;;12.20;9.93;;;7.00;99.90;;;;;;6035497;23;20145;-84
2021/01/03 02:25:00;;;;;;;13.07;9.43;;;7.00;99.90;;;;;;6034905;23;20137;-84
2021/01/03 02:27:47;;;;;;;11.27;9.85;;;7.00;99.90;;;;;;6036849;23;20567;-85
2021/01/03 02:30:16;;;;;;;11.93;9.63;;;7.00;99.90;;;;;;6034001;23;20214;-84
2021/01/03 02:32:45;;;;;;;11.48;8.57;;;7.00;99.90;;;;;;6009593;23;20154;-84
2021/01/03 02:35:12;;;;;;;11.23;9.38;;;7.00;99.90;;;;;;6031997;23;20173;-84
2021/01/03 02:37:41;;;;;;;14.50;9.50;;;7.00;99.90;;;;;;6009843;23;20160;-84
2021/01/03 02:40:20;;;;;;;12.15;9.52;;;7.00;99.90;;;;;;6034513;23;20165;-84
2021/01/03 02:42:47;;;;;;;11.80;8.75;;;7.00;99.90;;;;;;6032423;23;20133;-84
2021/01/03 02:45:23;;;;;;;11.25;9.20;;;7.00;99.90;;;;;;6008509;23;20304;-84
2021/01/03 02:47:49;;;;;;;11.73;9.65;;;7.10;99.90;;;;;;6031655;23;20160;-84
2021/01/03 02:50:23;;;;;;;15.68;12.00;;;7.10;99.90;;;;;;6033126;23;20176;-84
2021/01/03 02:52:49;;;;;;;15.30;10.50;;;7.10;99.90;;;;;;6033865;23;20137;-84
2021/01/03 02:55:17;;;;;;;15.13;11.80;;;7.10;99.90;;;;;;6031821;23;20204;-84
2021/01/03 02:57:43;;;;;;;15.43;13.02;;;7.10;99.90;;;;;;6035588;23;20149;-84
2021/01/03 03:00:14;;;;;;;20.33;12.30;;;7.10;99.90;;;;;;6011236;23;20876;-84
2021/01/03 03:02:40;;;;;;;15.50;10.90;;;7.10;99.90;;;;;;6037739;23;20138;-84
2021/01/03 03:05:07;;;;;;;12.10;9.90;;;7.00;99.90;;;;;;6032952;23;20160;-84
2021/01/03 03:07:33;;;;;;;11.15;8.90;;;7.00;99.90;;;;;;6055554;23;20652;-84
2021/01/03 03:09:59;;;;;;;9.05;7.25;;;7.00;99.90;;;;;;6056092;23;20181;-84
2021/01/03 03:12:25;;;;;;;8.07;7.28;;;7.00;99.90;;;;;;6032238;23;20153;-84
2021/01/03 03:14:51;;;;;;;6.83;6.03;;;7.00;99.90;;;;;;6034335;23;20184;-84
2021/01/03 03:17:17;;;;;;;9.68;6.10;;;7.00;99.90;;;;;;6009134;23;20760;-84
2021/01/03 03:19:42;;;;;;;8.60;6.07;;;6.90;99.90;;;;;;6034822;23;20170;-84
2021/01/03 03:22:08;;;;;;;6.20;5.53;;;6.90;99.90;;;;;;6035022;23;20145;-84
2021/01/03 03:24:35;;;;;;;6.80;5.45;;;6.90;99.90;;;;;;5986800;23;20161;-84
2021/01/03 03:27:03;;;;;;;7.43;5.40;;;7.00;99.90;;;;;;5987565;23;20188;-84
2021/01/03 03:29:30;;;;;;;7.28;5.38;;;6.90;99.90;;;;;;6037285;23;20177;-84
2021/01/03 03:31:57;;;;;;;6.85;5.15;;;6.90;99.90;;;;;;6186200;23;20158;-84
2021/01/03 03:34:25;;;;;;;6.15;5.50;;;7.00;99.90;;;;;;6160596;23;20503;-84
2021/01/03 03:36:55;;;;;;;7.10;5.60;;;7.00;99.90;;;;;;6159291;23;20169;-84
2021/01/03 03:39:23;;;;;;;6.15;4.97;;;7.00;99.90;;;;;;6139627;23;20201;-84
2021/01/03 03:41:49;;;;;;;5.70;4.93;;;7.00;99.90;;;;;;6186463;23;20154;-84
2021/01/03 03:44:15;;;;;;;6.50;4.60;;;7.00;99.90;;;;;;6161563;23;20212;-84
2021/01/03 03:46:41;;;;;;;5.67;4.20;;;7.00;99.90;;;;;;6161190;23;20201;-84
2021/01/03 03:49:07;;;;;;;5.50;4.00;;;7.00;99.90;;;;;;6136446;23;20724;-84
2021/01/03 03:51:32;;;;;;;4.67;3.97;;;7.00;99.90;;;;;;6186957;23;20517;-84
2021/01/03 03:53:58;;;;;;;5.30;4.10;;;7.00;99.90;;;;;;6137201;23;21422;-84
2021/01/03 03:56:24;;;;;;;6.50;5.45;;;7.00;99.90;;;;;;6186607;23;20553;-84
2021/01/03 03:58:50;;;;;;;7.83;5.87;;;7.00;99.90;;;;;;6186230;23;20184;-84
2021/01/03 04:01:16;;;;;;;12.02;5.97;;;7.00;99.90;;;;;;6159636;23;20596;-84
2021/01/03 04:03:42;;;;;;;7.00;5.87;;;7.00;99.90;;;;;;6133945;23;20154;-84
2021/01/03 04:06:08;;;;;;;7.80;5.90;;;7.00;99.90;;;;;;6183486;23;20146;-84
2021/01/03 04:08:36;;;;;;;9.45;7.05;;;7.00;99.90;;;;;;6107567;23;20651;-84
2021/01/03 04:11:02;;;;;;;10.90;8.15;;;7.00;99.90;;;;;;6132610;23;20146;-84
2021/01/03 04:13:31;;;;;;;9.38;8.02;;;7.00;99.90;;;;;;6132976;23;20579;-84
2021/01/03 04:15:59;;;;;;;16.73;10.25;;;7.00;99.90;;;;;;6137068;23;20157;-85
2021/01/03 04:18:29;;;;;;;13.52;10.45;;;7.00;99.90;;;;;;6187349;23;20166;-84
2021/01/03 04:20:55;;;;;;;15.20;12.00;;;7.00;99.90;;;;;;6183335;23;20169;-84
2021/01/03 04:23:21;;;;;;;16.83;12.30;;;7.00;99.90;;;;;;6158443;23;20601;-84
2021/01/03 04:25:47;;;;;;;13.13;11.07;;;7.00;99.90;;;;;;6157587;23;20138;-83
2021/01/03 04:28:13;;;;;;;16.30;13.03;;;7.00;99.90;;;;;;6159250;23;20556;-84
2021/01/03 04:30:39;;;;;;;15.98;11.43;;;7.00;99.90;;;;;;6096569;23;20568;-84
2021/01/03 04:33:05;;;;;;;17.25;12.85;;;7.00;99.90;;;;;;6012015;23;20154;-84
2021/01/03 04:35:31;;;;;;;16.47;11.90;;;7.00;99.90;;;;;;6010726;23;20187;-84
2021/01/03 04:37:56;;;;;;;14.30;11.20;;;6.90;99.90;;;;;;6007310;23;20157;-84
2021/01/03 04:40:26;;;;;;;17.63;13.33;;;6.90;99.90;;;;;;6008202;23;20645;-85
2021/01/03 04:42:55;;;;;;;12.23;10.43;;;6.90;99.90;;;;;;6031561;23;20282;-84
2021/01/03 04:45:37;;;;;;;15.00;11.73;;;6.90;99.90;;;;;;6033415;23;20137;-84
2021/01/03 04:48:07;;;;;;;15.90;12.63;;;6.90;99.90;;;;;;6031353;23;20173;-84
2021/01/03 04:50:50;;;;;;;16.75;13.48;;;6.90;99.90;;;;;;6031328;23;20137;-84
2021/01/03 04:53:16;;;;;;;15.60;11.70;;;6.90;99.90;;;;;;6035069;23;20232;-84
2021/01/03 04:55:50;;;;;;;12.48;10.57;;;6.80;99.90;;;;;;6034902;23;20216;-84
2021/01/03 04:58:20;;;;;;;14.52;11.55;;;6.90;99.90;;;;;;5985486;23;20152;-84
2021/01/03 05:01:22;;;;;;;13.55;10.35;;;6.80;99.90;;;;;;6032869;23;20453;-84
2021/01/03 05:04:13;;;;;;;16.90;10.05;;;6.80;99.90;;;;;;6032660;23;20236;-84
2021/01/03 05:06:48;;;;;;;11.20;9.40;;;6.90;99.90;;;;;;6015048;23;20141;-83
2021/01/03 05:09:14;;;;;;;11.75;9.43;;;6.80;99.90;;;;;;6043266;23;20795;-84
2021/01/03 05:12:21;;;;;;;12.75;9.80;;;6.80;99.90;;;;;;6116566;23;20176;-77
2021/01/03 05:15:08;;;;;;;13.13;9.80;;;6.80;99.90;;;;;;6030888;23;20184;-77
2021/01/03 05:17:34;;;;;;;12.55;8.48;;;6.80;99.90;;;;;;6030047;23;20217;-78
2021/01/03 05:20:00;;;;;;;14.83;9.03;;;6.80;99.90;;;;;;6054352;23;20216;-78
2021/01/03 05:22:40;;;;;;;11.93;10.18;;;6.80;99.90;;;;;;6030645;23;20152;-78
2021/01/03 05:25:19;;;;;;;14.02;10.02;;;6.80;99.90;;;;;;6054513;23;20228;-78
2021/01/03 05:28:03;;;;;;;11.68;9.52;;;6.80;99.90;;;;;;6054134;23;20229;-78
2021/01/03 05:30:30;;;;;;;11.48;9.68;;;6.80;99.90;;;;;;6033840;23;20580;-78
2021/01/03 05:33:15;;;;;;;12.52;11.20;;;6.80;99.90;;;;;;6057246;23;20232;-78
2021/01/03 05:36:19;;;;;;;11.40;8.85;;;6.80;99.90;;;;;;6031389;23;20172;-78
2021/01/03 05:39:17;;;;;;;15.10;10.80;;;6.80;99.90;;;;;;6039743;23;20173;-77
2021/01/03 05:42:03;;;;;;;10.93;9.13;;;6.80;99.90;;;;;;6032022;23;20175;-78
2021/01/03 05:44:41;;;;;;;13.45;11.48;;;6.80;99.90;;;;;;6030817;23;20145;-77
2021/01/03 05:47:52;;;;;;;;;;;;;;;;;;;;;
2021/01/03 05:50:56;;;;;;;13.57;9.73;;;6.80;99.90;;;;;;5980518;23;20191;-77
2021/01/03 05:54:22;;;;;;;11.45;9.15;;;6.80;99.90;;;;;;6015697;23;20176;-77
2021/01/03 05:57:34;;;;;;;12.55;9.82;;;6.80;99.90;;;;;;6030706;23;20499;-77
2021/01/03 06:00:27;;;;;;;13.90;11.38;;;6.80;99.90;;;;;;5932211;23;20881;-77
2021/01/03 06:03:32;;;;;;;15.70;11.55;;;6.70;99.90;;;;;;6007895;23;20153;-77
2021/01/03 06:06:51;;;;;;;14.02;10.77;;;6.70;99.90;;;;;;6032044;23;20156;-77
2021/01/03 06:09:39;;;;;;;15.95;12.25;;;6.70;99.90;;;;;;6035373;23;20634;-77
2021/01/03 06:12:17;;;;;;;15.52;11.45;;;6.70;99.90;;;;;;6032382;23;20154;-77
2021/01/03 06:15:01;;;;;;;14.82;12.05;;;6.70;99.90;;;;;;6029741;23;20508;-77
2021/01/03 06:17:57;;;;;;;15.32;11.73;;;6.70;99.90;;;;;;6030382;23;20160;-78
2021/01/03 06:20:41;;;;;;;13.55;10.80;;;6.70;99.90;;;;;;6031692;23;20235;-77
2021/01/03 06:23:39;;;;;;;12.07;10.38;;;6.70;99.90;;;;;;6030091;23;20551;-77
2021/01/03 06:26:51;;;;;;;14.65;10.38;;;6.70;99.90;;;;;;5990557;23;20620;-78
2021/01/03 06:33:41;;;;;;;16.73;11.43;;;6.70;99.90;;;;;;6023416;23;20195;-77
2021/01/03 06:36:22;;;;;;;12.43;11.07;;;6.70;99.90;;;;;;5983458;23;20220;-78
2021/01/03 06:39:24;;;;;;;12.32;9.75;;;6.70;99.90;;;;;;6006131;23;20184;-77
2021/01/03 06:42:05;;;;;;;14.73;10.77;;;6.70;99.90;;;;;;6006775;23;20195;-77
2021/01/03 06:45:13;;;;;;;14.05;11.05;;;6.70;99.90;;;;;;6013911;23;20157;-77
2021/01/03 06:47:55;;;;;;;13.55;10.82;;;6.70;99.90;;;;;;5996731;23;20612;-78
2021/01/03 06:50:54;;;;;;;14.40;11.48;;;6.70;99.90;;;;;;5983226;23;20559;-78
2021/01/03 06:54:19;;;;;;;13.88;9.50;;;6.70;99.90;;;;;;5984707;23;20579;-77
2021/01/03 06:57:28;;;;;;;13.45;10.48;;;6.70;99.90;;;;;;6026611;23;20176;-77
2021/01/03 07:00:14;;;;;;;12.75;10.23;;;6.70;99.90;;;;;;6005948;23;20220;-78
2021/01/03 07:02:49;;;;;;;12.07;8.80;;;6.70;99.90;;;;;;5983279;23;20154;-77
2021/01/03 07:05:18;;;;;;;10.75;9.05;;;6.70;99.90;;;;;;6030741;23;20165;-78
2021/01/03 07:08:01;;;;;;;13.27;10.95;;;6.70;99.90;;;;;;6006265;23;20150;-77
2021/01/03 07:10:52;;;;;;;11.88;9.05;;;6.70;99.90;;;;;;6006851;23;20182;-77
2021/01/03 07:13:54;;;;;;;;;;;;;;;;;;;;;
2021/01/03 07:16:50;;;;;;;15.68;10.40;;;6.70;99.90;;;;;;5999819;23;20228;-77
2021/01/03 07:20:01;;;;;;;11.18;8.98;;;6.70;99.90;;;;;;6030343;23;20188;-77
2021/01/03 07:22:48;;;;;;;8.77;7.00;;;6.70;99.90;;;;;;6014236;23;20216;-77
2021/01/03 07:25:21;;;;;;;10.73;8.23;;;6.70;99.90;;;;;;6029944;23;20176;-77
2021/01/03 07:28:12;;;;;;;9.73;7.45;;;6.70;99.90;;;;;;5981670;23;20245;-77
2021/01/03 07:31:10;;;;;;;8.75;7.57;;;6.70;99.90;;;;;;5982749;23;20181;-77
2021/01/03 07:34:05;;;;;;;8.05;6.80;;;6.70;99.90;;;;;;6031458;23;20188;-77
2021/01/03 07:36:34;;;;;;;8.50;6.03;;;6.70;99.90;;;;;;5983120;23;20188;-76
2021/01/03 07:39:49;;;;;;;9.80;7.43;;;6.70;99.90;;;;;;6006354;23;20165;-76
2021/01/03 07:42:36;;;;;;;;;;;;;;;;;;;;;
2021/01/03 07:45:32;;;;;;;7.75;5.82;;;6.70;99.90;;;;;;6007325;23;20154;-76
2021/01/03 07:48:40;;;;;;;6.78;5.45;;;6.70;99.90;;;;;;5988436;23;20538;-76
2021/01/03 07:51:20;;;;;;;7.38;6.22;;;6.70;99.90;;;;;;5983412;23;20165;-76
2021/01/03 07:54:09;;;;;;;7.05;5.63;;;6.70;99.90;;;;;;6009549;23;20169;-76
2021/01/03 07:57:07;;;;;;;8.63;6.43;;;6.70;99.90;;;;;;6010550;23;20477;-76
2021/01/03 07:59:40;;;;;;;7.85;5.88;;;6.80;99.90;;;;;;6010291;23;20844;-78
2021/01/03 08:02:34;;;;;;;7.18;5.57;;;6.80;99.90;;;;;;6011555;23;20153;-76
2021/01/03 08:05:12;;;;;;;7.05;6.35;;;6.80;99.90;;;;;;6008082;23;20157;-76
2021/01/03 08:07:46;;;;;;;8.70;6.55;;;6.80;99.90;;;;;;5990915;23;20157;-77
2021/01/03 08:10:13;;;;;;;6.80;5.78;;;6.80;99.90;;;;;;6007596;23;20504;-77
2021/01/03 08:13:00;;;;;;;7.85;6.22;;;6.80;99.90;;;;;;5984945;23;20148;-77
2021/01/03 08:16:08;;;;;;;5.65;5.13;;;6.90;99.90;;;;;;5993695;23;20161;-77
2021/01/03 08:19:26;;;;;;;8.88;6.63;;;6.90;99.90;;;;;;6010554;23;20232;-77
2021/01/03 08:22:12;;;;;;;7.22;6.50;;;6.90;99.90;;;;;;5981876;23;20236;-78
2021/01/03 08:30:18;;;;;;;;;;;;;;;;;;;;;
2021/01/03 08:33:25;;;;;;;6.32;5.25;;;6.90;99.90;;;;;;6027793;23;20176;-77
2021/01/03 08:36:40;;;;;;;9.07;6.75;;;7.00;99.90;;;;;;6002295;23;20161;-77
2021/01/03 08:39:56;;;;;;;9.70;7.22;;;7.00;99.90;;;;;;6006169;23;20236;-77
2021/01/03 08:46:23;;;;;;;6.32;5.13;;;7.00;99.90;;;;;;6003814;23;20153;-77
2021/01/03 08:49:06;;;;;;;6.85;6.15;;;7.00;99.90;;;;;;5982583;23;20506;-77
2021/01/03 08:52:24;;;;;;;;;;;;;;;;;;;;;
2021/01/03 08:56:20;;;;;;;5.93;5.32;;;7.00;99.90;;;;;;6031363;23;20169;-77
2021/01/03 09:19:57;;;;;;;5.63;5.07;;;7.20;99.90;;;;;;5902252;23;20567;-77
2021/01/03 09:22:59;;;;;;;9.27;8.18;;;7.30;99.90;;;;;;6005233;23;20703;-77
2021/01/03 09:25:43;;;;;;;5.57;5.05;;;7.20;99.90;;;;;;6030572;23;20153;-77
2021/01/03 09:28:39;;;;;;;7.07;5.97;;;7.20;99.90;;;;;;6029730;23;20675;-77
2021/01/03 09:31:43;;;;;;;6.70;6.00;;;7.30;99.90;;;;;;6011979;23;20157;-77
2021/01/03 09:35:05;;;;;;;6.18;5.43;;;7.20;99.90;;;;;;6002475;23;20180;-76
2021/01/03 09:38:13;;;;;;;6.80;6.00;;;7.30;99.90;;;;;;5982946;23;20184;-76
2021/01/03 09:41:23;;;;;;;;;;;;;;;;;;;;;
2021/01/03 09:44:32;;;;;;;6.43;5.47;;;7.20;99.90;;;;;;5990144;23;20161;-76
2021/01/03 09:56:22;;;;;;;7.03;5.45;;;7.20;99.90;;;;;;6181856;23;20181;-78
2021/01/03 10:26:39;;;;;;;10.43;7.72;;;7.30;99.90;;;;;;6044228;23;20159;-79
2021/01/03 10:29:38;;;;;;;6.35;5.60;;;7.40;99.90;;;;;;6045440;23;20826;-78
2021/01/03 10:32:07;;;;;;;6.20;5.55;;;7.40;99.90;;;;;;6130796;23;20150;-78
2021/01/03 10:34:33;;;;;;;6.18;4.82;;;7.40;99.90;;;;;;6155526;23;20529;-78
2021/01/03 10:36:59;;;;;;;7.30;5.88;;;7.40;99.90;;;;;;6135283;23;20168;-78
2021/01/03 10:39:31;;;;;;;7.15;5.88;;;7.50;99.90;;;;;;6174522;23;20188;-77
2021/01/03 10:41:58;;;;;;;8.10;6.32;;;7.50;99.90;;;;;;6149335;23;20150;-77
2021/01/03 10:44:32;;;;;;;6.20;5.60;;;7.50;99.90;;;;;;6125274;23;20158;-77
2021/01/03 10:47:10;;;;;;;9.05;8.15;;;7.50;99.90;;;;;;6150596;23;20714;-79
2021/01/03 10:49:36;;;;;;;7.22;6.53;;;7.40;99.90;;;;;;6158406;23;20177;-77
2021/01/03 10:52:34;;;;;;;7.50;6.20;;;7.40;99.90;;;;;;6180486;23;20161;-79
2021/01/03 10:55:00;;;;;;;7.97;5.47;;;7.40;99.90;;;;;;6106370;23;20177;-77
2021/01/03 10:57:40;;;;;;;6.20;5.60;;;7.50;99.90;;;;;;6159742;23;20483;-76
2021/01/03 12:08:29;;;;;;;5.30;4.75;;;7.60;99.90;;;;;;6122871;23;20200;-86
2021/01/03 12:10:55;;;;;;;5.53;4.70;;;7.60;99.90;;;;;;6155638;23;20174;-85
2021/01/03 12:13:21;;;;;;;5.00;4.50;;;7.60;99.90;;;;;;6157344;23;20217;-84
2021/01/03 12:15:47;;;;;;;5.33;4.83;;;7.60;99.90;;;;;;6103752;23;20566;-86
2021/01/03 12:18:15;;;;;;;5.25;4.75;;;7.50;99.90;;;;;;6157667;23;20613;-85
2021/01/03 12:20:41;;;;;;;5.00;4.60;;;7.50;99.90;;;;;;6113977;23;20170;-87
2021/01/03 12:36:07;;;;;;;5.75;5.20;;;7.40;99.90;;;;;;6155618;23;20197;-84
2021/01/03 12:52:22;;;;;;;4.13;3.72;;;7.40;99.90;;;;;;6185162;23;20205;-83
2021/01/03 12:54:48;;;;;;;4.20;3.33;;;7.40;99.90;;;;;;6159671;23;20161;-83
2021/01/03 12:57:14;;;;;;;3.70;3.22;;;7.40;99.90;;;;;;6157689;23;20568;-82
2021/01/03 12:59:39;;;;;;;3.50;3.00;;;7.40;99.90;;;;;;6183512;23;20731;-82
2021/01/03 13:02:06;;;;;;;3.17;2.77;;;7.40;99.90;;;;;;6156096;23;20150;-81
2021/01/03 13:04:33;;;;;;;3.38;3.00;;;7.50;99.90;;;;;;6182457;23;20154;-82
2021/01/03 13:06:59;;;;;;;4.67;3.00;;;7.40;99.90;;;;;;6182797;23;20671;-82
2021/01/03 13:09:25;;;;;;;5.50;2.92;;;7.50;99.90;;;;;;6180097;23;20204;-82
2021/01/03 13:11:51;;;;;;;3.40;3.10;;;7.50;99.90;;;;;;6156211;23;21002;-82
2021/01/03 13:14:18;;;;;;;4.17;3.50;;;7.60;99.90;;;;;;6182890;23;20201;-83
2021/01/03 13:16:44;;;;;;;3.67;2.95;;;7.60;99.90;;;;;;6163502;23;20540;-83
2021/01/03 13:19:12;;;;;;;3.60;2.22;;;7.60;99.90;;;;;;6182851;23;20162;-84
2021/01/03 13:21:38;;;;;;;3.25;2.95;;;7.70;99.90;;;;;;6132415;23;20167;-84
2021/01/03 13:24:05;;;;;;;3.22;2.92;;;7.60;99.90;;;;;;6182354;23;20146;-82
2021/01/03 13:26:31;;;;;;;3.45;3.00;;;7.70;99.90;;;;;;6133069;23;20177;-82
2021/01/03 13:28:57;;;;;;;3.57;3.27;;;7.60;99.90;;;;;;6155794;23;20156;-82
2021/01/03 13:31:26;;;;;;;2.70;2.50;;;7.70;99.90;;;;;;6158088;23;20548;-84
2021/01/03 13:33:52;;;;;;;2.72;2.00;;;7.60;99.90;;;;;;6160964;23;20577;-81
2021/01/03 13:36:19;;;;;;;3.40;2.45;;;7.60;99.90;;;;;;6188660;23;20145;-83
2021/01/03 13:38:47;;;;;;;2.67;2.45;;;7.60;99.90;;;;;;6160079;23;20181;-82
2021/01/03 13:41:13;;;;;;;3.15;2.65;;;7.60;99.90;;;;;;6160492;23;20466;-82
2021/01/03 13:43:40;;;;;;;2.80;2.42;;;7.60;99.90;;;;;;6185267;23;20130;-81
2021/01/03 13:46:08;;;;;;;2.60;2.40;;;7.60;99.90;;;;;;6159617;23;20149;-78
2021/01/03 13:48:43;;;;;;;2.83;2.53;;;7.60;99.90;;;;;;6187921;23;20444;-82
2021/01/03 13:51:11;;;;;;;3.50;2.55;;;7.60;99.90;;;;;;6130257;23;20257;-82
2021/01/03 13:53:37;;;;;;;3.03;2.78;;;7.60;99.90;;;;;;6039825;23;20591;-82
2021/01/03 13:56:03;;;;;;;2.78;2.47;;;7.60;99.90;;;;;;6040476;23;20142;-81
2021/01/03 13:58:29;;;;;;;2.58;2.38;;;7.50;99.90;;;;;;6045781;23;20137;-81
2021/01/03 14:00:55;;;;;;;3.27;2.90;;;7.50;99.90;;;;;;6046399;23;20183;-82
2021/01/03 14:03:21;;;;;;;3.58;3.13;;;7.50;99.90;;;;;;6048222;23;20606;-81
2021/01/03 14:05:49;;;;;;;2.67;2.47;;;7.50;99.90;;;;;;6052707;23;20530;-82
2021/01/03 14:08:16;;;;;;;2.97;2.45;;;7.50;99.90;;;;;;6051285;23;20538;-80
2021/01/03 14:10:42;;;;;;;2.58;2.38;;;7.50;99.90;;;;;;6052622;23;20180;-83
2021/01/03 14:13:12;;;;;;;4.13;3.72;;;7.50;99.90;;;;;;6050532;23;20173;-79
2021/01/03 14:15:40;;;;;;;2.97;2.65;;;7.40;99.90;;;;;;6040521;23;20181;-83
2021/01/03 14:18:07;;;;;;;3.40;3.10;;;7.50;99.90;;;;;;6037816;23;20168;-83
2021/01/03 14:20:33;;;;;;;2.90;2.58;;;7.40;99.90;;;;;;6038718;23;20172;-83
2021/01/03 14:22:59;;;;;;;3.15;2.80;;;7.40;99.90;;;;;;5990730;23;20181;-83
2021/01/03 14:25:27;;;;;;;2.77;2.47;;;7.40;99.90;;;;;;6033179;23;20156;-80
2021/01/03 14:27:53;;;;;;;2.75;2.42;;;7.40;99.90;;;;;;6030292;23;21074;-82
2021/01/03 14:30:21;;;;;;;3.58;3.13;;;7.40;99.90;;;;;;6034067;23;20173;-83
2021/01/03 14:32:53;;;;;;;3.17;2.88;;;7.50;99.90;;;;;;6038596;23;20170;-82
2021/01/03 14:35:23;;;;;;;3.40;3.10;;;7.40;99.90;;;;;;6035259;23;20176;-81
2021/01/03 14:37:59;;;;;;;2.40;2.20;;;7.40;99.90;;;;;;6032692;23;20237;-81
2021/01/03 14:40:38;;;;;;;3.00;2.47;;;7.40;99.90;;;;;;6045366;23;20164;-81
2021/01/03 14:43:06;;;;;;;4.15;2.60;;;7.40;99.90;;;;;;6043272;23;20400;-81
2021/01/03 14:45:40;;;;;;;4.45;3.03;;;7.50;99.90;;;;;;6038381;23;20217;-83
2021/01/03 14:48:21;;;;;;;3.75;2.90;;;7.50;99.90;;;;;;6035808;23;20217;-82
2021/01/03 14:51:19;;;;;;;3.33;3.13;;;7.50;99.90;;;;;;6050003;23;20579;-83
2021/01/03 14:53:57;;;;;;;3.67;3.15;;;7.50;99.90;;;;;;6119574;23;20221;-81
2021/01/03 14:56:52;;;;;;;3.75;3.30;;;7.50;99.90;;;;;;6159908;23;20140;-81
2021/01/03 14:59:34;;;;;;;4.03;2.88;;;7.60;99.90;;;;;;6155459;23;20232;-81
2021/01/03 15:02:01;;;;;;;4.57;4.10;;;7.60;99.90;;;;;;6186336;23;20145;-81
2021/01/03 15:04:34;;;;;;;5.28;4.75;;;7.60;99.90;;;;;;6134579;23;20215;-81
2021/01/03 15:07:10;;;;;;;4.63;4.13;;;7.50;99.90;;;;;;6157094;23;20189;-81
2021/01/03 15:09:42;;;;;;;5.00;3.72;;;7.50;99.90;;;;;;6168229;23;20188;-81
2021/01/03 15:12:11;;;;;;;5.30;3.78;;;7.50;99.90;;;;;;6198418;23;20138;-82
2021/01/03 15:14:40;;;;;;;7.60;4.50;;;7.50;99.90;;;;;;6195565;23;20746;-82
2021/01/03 15:17:07;;;;;;;4.32;3.33;;;7.40;99.90;;;;;;6188636;23;20130;-81
2021/01/03 15:19:44;;;;;;;5.00;3.60;;;7.40;99.90;;;;;;6184777;23;20241;-82
2021/01/03 15:22:13;;;;;;;5.57;4.47;;;7.40;99.90;;;;;;6158196;23;20869;-82
2021/01/03 15:24:40;;;;;;;5.97;4.40;;;7.30;99.90;;;;;;6160038;23;20372;-82
2021/01/03 15:27:15;;;;;;;6.20;4.70;;;7.30;99.90;;;;;;6191436;23;20537;-82
2021/01/03 15:29:45;;;;;;;4.60;3.85;;;7.30;99.90;;;;;;6191208;23;20196;-82
2021/01/03 15:32:13;;;;;;;7.43;4.35;;;7.20;99.90;;;;;;6166631;23;20145;-81
2021/01/03 15:34:48;;;;;;;5.65;4.82;;;7.20;99.90;;;;;;6191824;23;20177;-81
2021/01/03 15:37:39;;;;;;;6.35;4.60;;;7.10;99.90;;;;;;6192409;23;20651;-81
2021/01/03 15:40:21;;;;;;;5.50;4.95;;;7.00;99.90;;;;;;6181142;23;20244;-81
2021/01/03 15:42:58;;;;;;;6.00;4.75;;;7.00;99.90;;;;;;6187856;23;20220;-80
2021/01/03 15:46:02;;;;;;;5.05;3.85;;;7.00;99.90;;;;;;6145269;23;20141;-80
2021/01/03 15:48:29;;;;;;;4.03;3.50;;;6.90;99.90;;;;;;6076075;23;20609;-80
2021/01/03 15:50:55;;;;;;;4.63;3.85;;;6.90;99.90;;;;;;6169724;23;20799;-82
2021/01/03 15:53:24;;;;;;;5.10;4.17;;;7.00;99.90;;;;;;6158723;23;20165;-81
2021/01/03 15:55:52;;;;;;;4.97;3.85;;;6.90;99.90;;;;;;6156433;23;20807;-81
2021/01/03 15:58:18;;;;;;;4.57;3.60;;;6.90;99.90;;;;;;6182662;23;20460;-83
2021/01/03 16:00:46;;;;;;;5.90;4.38;;;6.90;99.90;;;;;;6181056;23;20166;-82
2021/01/03 16:03:12;;;;;;;6.78;4.40;;;7.00;99.90;;;;;;6156861;23;20158;-81
2021/01/03 16:05:38;;;;;;;6.45;4.47;;;7.00;99.90;;;;;;6183024;23;20145;-82
2021/01/03 16:08:06;;;;;;;5.67;4.37;;;7.00;99.90;;;;;;6156279;23;20157;-80
2021/01/03 16:10:31;;;;;;;4.07;3.67;;;7.00;99.90;;;;;;6182318;23;20639;-82
2021/01/03 16:12:59;;;;;;;6.03;5.15;;;7.00;99.90;;;;;;6131984;23;20568;-81
2021/01/03 16:15:25;;;;;;;6.70;5.90;;;7.00;99.90;;;;;;6131057;23;20759;-82
2021/01/03 16:17:51;;;;;;;8.07;6.60;;;6.90;99.90;;;;;;6155203;23;21299;-82
2021/01/03 16:20:21;;;;;;;6.90;6.20;;;6.90;99.90;;;;;;6181612;23;21015;-81
2021/01/03 16:23:23;;;;;;;5.53;4.72;;;6.80;99.90;;;;;;6161451;23;20130;-82
2021/01/03 16:26:08;;;;;;;6.55;4.70;;;6.90;99.90;;;;;;6156501;23;20156;-82
2021/01/03 16:28:34;;;;;;;5.50;4.53;;;6.90;99.90;;;;;;6155878;23;20153;-82
2021/01/03 16:31:28;;;;;;;5.90;4.80;;;7.00;99.90;;;;;;6155994;23;20228;-81
2021/01/03 16:34:11;;;;;;;6.65;4.25;;;7.00;99.90;;;;;;6183149;23;20521;-83
2021/01/03 16:37:14;;;;;;;5.63;3.95;;;7.00;99.90;;;;;;6166583;23;20170;-80
2021/01/03 16:39:56;;;;;;;4.68;3.50;;;6.90;99.90;;;;;;6173318;23;20161;-82
2021/01/03 16:42:48;;;;;;;4.97;4.40;;;6.90;99.90;;;;;;6180283;23;20664;-82
2021/01/03 16:45:38;;;;;;;3.72;3.17;;;6.80;99.90;;;;;;6182123;23;20500;-81
2021/01/03 16:48:16;;;;;;;4.68;4.07;;;6.80;99.90;;;;;;6181720;23;20489;-82
2021/01/03 16:50:58;;;;;;;4.55;3.50;;;6.80;99.90;;;;;;6155296;23;20610;-82
2021/01/03 16:53:40;;;;;;;5.30;4.78;;;6.80;99.90;;;;;;6154699;23;21298;-81
2021/01/03 16:56:33;;;;;;;4.20;3.72;;;6.70;99.90;;;;;;6181757;23;20138;-82
2021/01/03 16:59:38;;;;;;;4.05;3.20;;;6.70;99.90;;;;;;6106737;23;20173;-80
2021/01/03 17:14:27;;;;;;;4.65;3.30;;;6.70;99.90;;;;;;6146185;23;20252;-83
2021/01/03 17:17:31;;;;;;;3.65;3.05;;;6.80;99.90;;;;;;6180072;23;20154;-83
2021/01/03 17:20:07;;;;;;;3.70;2.58;;;6.80;99.90;;;;;;6145914;23;20662;-84
2021/01/03 17:22:37;;;;;;;4.45;4.05;;;6.80;99.90;;;;;;6153799;23;20724;-84
2021/01/03 17:25:14;;;;;;;4.20;3.60;;;6.70;99.90;;;;;;6183967;23;20479;-82
2021/01/03 17:28:05;;;;;;;5.88;3.38;;;6.70;99.90;;;;;;6106433;23;20153;-83
2021/01/03 17:30:50;;;;;;;5.07;3.75;;;6.80;99.90;;;;;;6181143;23;20177;-82
2021/01/03 17:33:49;;;;;;;5.65;5.05;;;6.80;99.90;;;;;;6154143;23;20655;-83
2021/01/03 17:36:16;;;;;;;3.70;3.35;;;6.70;99.90;;;;;;6181476;23;20142;-84